sensor_id;sensor_type;location;lat;lon;timestamp;temperature;humidity
22469;DHT22;11401;50.792;4.352;2023-09-08T00:00:04;24.10;67.90
22469;DHT22;11401;50.792;4.352;2023-09-08T00:02:31;24.10;67.90
22469;DHT22;11401;50.792;4.352;2023-09-08T00:04:58;24.10;67.80
22469;DHT22;11401;50.792;4.352;2023-09-08T00:07:25;24.10;67.80
22469;DHT22;11401;50.792;4.352;2023-09-08T00:09:52;24.10;67.90
22469;DHT22;11401;50.792;4.352;2023-09-08T00:12:20;24.10;67.80
22469;DHT22;11401;50.792;4.352;2023-09-08T00:14:47;24.10;67.90
22469;DHT22;11401;50.792;4.352;2023-09-08T00:17:14;24.10;67.80
22469;DHT22;11401;50.792;4.352;2023-09-08T00:19:41;24.10;67.90
22469;DHT22;11401;50.792;4.352;2023-09-08T00:22:08;24.10;67.90
22469;DHT22;11401;50.792;4.352;2023-09-08T00:24:35;24.10;67.90
22469;DHT22;11401;50.792;4.352;2023-09-08T00:27:02;24.10;67.90
22469;DHT22;11401;50.792;4.352;2023-09-08T00:29:29;24.10;67.80
22469;DHT22;11401;50.792;4.352;2023-09-08T00:31:56;24.10;67.90
22469;DHT22;11401;50.792;4.352;2023-09-08T00:34:24;24.10;67.90
22469;DHT22;11401;50.792;4.352;2023-09-08T00:36:51;24.00;67.80
22469;DHT22;11401;50.792;4.352;2023-09-08T00:39:18;24.00;67.70
22469;DHT22;11401;50.792;4.352;2023-09-08T00:41:45;24.00;67.70
22469;DHT22;11401;50.792;4.352;2023-09-08T00:44:12;24.00;67.70
22469;DHT22;11401;50.792;4.352;2023-09-08T00:46:39;24.00;67.70
22469;DHT22;11401;50.792;4.352;2023-09-08T00:49:07;24.00;67.70
22469;DHT22;11401;50.792;4.352;2023-09-08T00:51:36;24.00;67.70
22469;DHT22;11401;50.792;4.352;2023-09-08T00:54:06;24.00;67.70
22469;DHT22;11401;50.792;4.352;2023-09-08T00:56:34;24.00;67.70
22469;DHT22;11401;50.792;4.352;2023-09-08T00:59:04;24.00;67.70
22469;DHT22;11401;50.792;4.352;2023-09-08T01:01:31;24.00;67.70
22469;DHT22;11401;50.792;4.352;2023-09-08T01:03:58;24.00;67.60
22469;DHT22;11401;50.792;4.352;2023-09-08T01:06:26;24.00;67.70
22469;DHT22;11401;50.792;4.352;2023-09-08T01:08:54;24.00;67.60
22469;DHT22;11401;50.792;4.352;2023-09-08T01:11:23;24.00;67.70
22469;DHT22;11401;50.792;4.352;2023-09-08T01:13:50;23.90;67.70
22469;DHT22;11401;50.792;4.352;2023-09-08T01:16:17;24.00;67.70
22469;DHT22;11401;50.792;4.352;2023-09-08T01:18:46;24.00;67.70
22469;DHT22;11401;50.792;4.352;2023-09-08T01:26:44;24.00;67.60
22469;DHT22;11401;50.792;4.352;2023-09-08T01:29:13;24.00;67.70
22469;DHT22;11401;50.792;4.352;2023-09-08T01:31:41;24.00;67.70
22469;DHT22;11401;50.792;4.352;2023-09-08T01:34:08;23.90;67.60
22469;DHT22;11401;50.792;4.352;2023-09-08T01:36:36;23.90;67.60
22469;DHT22;11401;50.792;4.352;2023-09-08T01:39:04;23.90;67.60
22469;DHT22;11401;50.792;4.352;2023-09-08T01:41:31;24.00;67.60
22469;DHT22;11401;50.792;4.352;2023-09-08T01:43:59;23.90;67.60
22469;DHT22;11401;50.792;4.352;2023-09-08T01:46:27;23.90;67.60
22469;DHT22;11401;50.792;4.352;2023-09-08T01:48:54;23.90;67.50
22469;DHT22;11401;50.792;4.352;2023-09-08T01:51:21;23.90;67.60
22469;DHT22;11401;50.792;4.352;2023-09-08T01:53:48;24.00;67.50
22469;DHT22;11401;50.792;4.352;2023-09-08T01:56:15;23.90;67.40
22469;DHT22;11401;50.792;4.352;2023-09-08T01:58:42;23.90;67.40
22469;DHT22;11401;50.792;4.352;2023-09-08T02:01:09;23.90;67.40
22469;DHT22;11401;50.792;4.352;2023-09-08T02:03:36;23.90;67.30
22469;DHT22;11401;50.792;4.352;2023-09-08T02:06:03;23.90;67.40
22469;DHT22;11401;50.792;4.352;2023-09-08T02:08:30;23.90;67.40
22469;DHT22;11401;50.792;4.352;2023-09-08T02:10:58;23.90;67.40
22469;DHT22;11401;50.792;4.352;2023-09-08T02:13:25;23.90;67.30
22469;DHT22;11401;50.792;4.352;2023-09-08T02:15:52;23.90;67.30
22469;DHT22;11401;50.792;4.352;2023-09-08T02:18:20;23.90;67.30
22469;DHT22;11401;50.792;4.352;2023-09-08T02:20:48;23.90;67.30
22469;DHT22;11401;50.792;4.352;2023-09-08T02:23:15;23.90;67.20
22469;DHT22;11401;50.792;4.352;2023-09-08T02:25:42;23.90;67.20
22469;DHT22;11401;50.792;4.352;2023-09-08T02:28:09;23.90;67.20
22469;DHT22;11401;50.792;4.352;2023-09-08T02:30:36;23.80;67.10
22469;DHT22;11401;50.792;4.352;2023-09-08T02:33:04;23.80;67.10
22469;DHT22;11401;50.792;4.352;2023-09-08T02:35:37;23.80;67.10
22469;DHT22;11401;50.792;4.352;2023-09-08T02:38:07;23.90;67.10
22469;DHT22;11401;50.792;4.352;2023-09-08T02:40:35;23.80;67.00
22469;DHT22;11401;50.792;4.352;2023-09-08T02:43:04;23.80;67.00
22469;DHT22;11401;50.792;4.352;2023-09-08T02:45:31;23.80;67.00
22469;DHT22;11401;50.792;4.352;2023-09-08T02:48:02;23.80;67.00
22469;DHT22;11401;50.792;4.352;2023-09-08T02:50:30;23.80;67.00
22469;DHT22;11401;50.792;4.352;2023-09-08T02:52:57;23.80;67.00
22469;DHT22;11401;50.792;4.352;2023-09-08T02:55:24;23.80;66.90
22469;DHT22;11401;50.792;4.352;2023-09-08T02:57:52;23.80;66.90
22469;DHT22;11401;50.792;4.352;2023-09-08T03:00:19;23.80;66.90
22469;DHT22;11401;50.792;4.352;2023-09-08T03:02:46;23.80;66.90
22469;DHT22;11401;50.792;4.352;2023-09-08T03:05:13;23.80;66.80
22469;DHT22;11401;50.792;4.352;2023-09-08T03:07:40;23.80;66.80
22469;DHT22;11401;50.792;4.352;2023-09-08T03:10:08;23.80;66.80
22469;DHT22;11401;50.792;4.352;2023-09-08T03:12:36;23.80;66.70
22469;DHT22;11401;50.792;4.352;2023-09-08T03:15:03;23.80;66.70
22469;DHT22;11401;50.792;4.352;2023-09-08T03:17:30;23.80;66.70
22469;DHT22;11401;50.792;4.352;2023-09-08T03:19:57;23.70;66.70
22469;DHT22;11401;50.792;4.352;2023-09-08T03:22:26;23.80;66.70
22469;DHT22;11401;50.792;4.352;2023-09-08T03:24:53;23.80;66.80
22469;DHT22;11401;50.792;4.352;2023-09-08T03:27:21;23.70;66.70
22469;DHT22;11401;50.792;4.352;2023-09-08T03:29:48;23.80;66.80
22469;DHT22;11401;50.792;4.352;2023-09-08T03:32:15;23.80;66.80
22469;DHT22;11401;50.792;4.352;2023-09-08T03:34:42;23.70;66.70
22469;DHT22;11401;50.792;4.352;2023-09-08T03:37:09;23.70;66.60
22469;DHT22;11401;50.792;4.352;2023-09-08T03:39:36;23.80;66.70
22469;DHT22;11401;50.792;4.352;2023-09-08T03:42:03;23.70;66.70
22469;DHT22;11401;50.792;4.352;2023-09-08T03:44:30;23.80;66.70
22469;DHT22;11401;50.792;4.352;2023-09-08T03:46:57;23.70;66.50
22469;DHT22;11401;50.792;4.352;2023-09-08T03:49:30;23.70;66.40
22469;DHT22;11401;50.792;4.352;2023-09-08T03:51:57;23.70;66.50
22469;DHT22;11401;50.792;4.352;2023-09-08T03:54:25;23.70;66.60
22469;DHT22;11401;50.792;4.352;2023-09-08T03:56:52;23.70;66.60
22469;DHT22;11401;50.792;4.352;2023-09-08T03:59:19;23.70;66.70
22469;DHT22;11401;50.792;4.352;2023-09-08T04:01:46;23.70;66.50
22469;DHT22;11401;50.792;4.352;2023-09-08T04:04:13;23.70;66.50
22469;DHT22;11401;50.792;4.352;2023-09-08T04:06:41;23.70;66.40
22469;DHT22;11401;50.792;4.352;2023-09-08T04:09:08;23.70;66.30
22469;DHT22;11401;50.792;4.352;2023-09-08T04:11:35;23.70;66.40
22469;DHT22;11401;50.792;4.352;2023-09-08T04:14:02;23.70;66.40
22469;DHT22;11401;50.792;4.352;2023-09-08T04:16:29;23.70;66.40
22469;DHT22;11401;50.792;4.352;2023-09-08T04:18:57;23.60;66.30
22469;DHT22;11401;50.792;4.352;2023-09-08T04:21:24;23.70;66.40
22469;DHT22;11401;50.792;4.352;2023-09-08T04:23:51;23.60;66.30
22469;DHT22;11401;50.792;4.352;2023-09-08T04:26:19;23.60;66.30
22469;DHT22;11401;50.792;4.352;2023-09-08T04:28:46;23.60;66.90
22469;DHT22;11401;50.792;4.352;2023-09-08T04:31:14;23.70;66.20
22469;DHT22;11401;50.792;4.352;2023-09-08T04:33:41;23.60;66.10
22469;DHT22;11401;50.792;4.352;2023-09-08T04:36:09;23.60;66.10
22469;DHT22;11401;50.792;4.352;2023-09-08T04:38:38;23.70;66.40
22469;DHT22;11401;50.792;4.352;2023-09-08T04:41:05;23.60;66.30
22469;DHT22;11401;50.792;4.352;2023-09-08T04:43:32;23.60;66.30
22469;DHT22;11401;50.792;4.352;2023-09-08T04:46:00;23.60;66.20
22469;DHT22;11401;50.792;4.352;2023-09-08T04:48:30;23.60;66.20
22469;DHT22;11401;50.792;4.352;2023-09-08T04:50:57;23.60;66.20
22469;DHT22;11401;50.792;4.352;2023-09-08T04:53:25;23.60;66.20
22469;DHT22;11401;50.792;4.352;2023-09-08T04:55:52;23.60;66.10
22469;DHT22;11401;50.792;4.352;2023-09-08T04:58:19;23.60;66.10
22469;DHT22;11401;50.792;4.352;2023-09-08T05:00:47;23.60;66.10
22469;DHT22;11401;50.792;4.352;2023-09-08T05:03:15;23.60;66.20
22469;DHT22;11401;50.792;4.352;2023-09-08T05:05:42;23.60;66.20
22469;DHT22;11401;50.792;4.352;2023-09-08T05:08:09;23.60;66.10
22469;DHT22;11401;50.792;4.352;2023-09-08T05:10:36;23.60;66.30
22469;DHT22;11401;50.792;4.352;2023-09-08T05:13:03;23.60;66.20
22469;DHT22;11401;50.792;4.352;2023-09-08T05:15:39;23.60;66.30
22469;DHT22;11401;50.792;4.352;2023-09-08T05:18:09;23.60;66.10
22469;DHT22;11401;50.792;4.352;2023-09-08T05:20:36;23.60;66.20
22469;DHT22;11401;50.792;4.352;2023-09-08T05:23:04;23.60;66.30
22469;DHT22;11401;50.792;4.352;2023-09-08T05:25:32;23.60;66.30
22469;DHT22;11401;50.792;4.352;2023-09-08T05:27:59;23.50;66.10
22469;DHT22;11401;50.792;4.352;2023-09-08T05:30:28;23.50;66.10
22469;DHT22;11401;50.792;4.352;2023-09-08T05:32:55;23.50;66.20
22469;DHT22;11401;50.792;4.352;2023-09-08T05:35:24;23.60;66.30
22469;DHT22;11401;50.792;4.352;2023-09-08T05:37:51;23.50;66.30
22469;DHT22;11401;50.792;4.352;2023-09-08T05:40:19;23.50;66.20
22469;DHT22;11401;50.792;4.352;2023-09-08T05:42:48;23.60;66.30
22469;DHT22;11401;50.792;4.352;2023-09-08T05:45:16;23.50;66.10
22469;DHT22;11401;50.792;4.352;2023-09-08T05:47:43;23.50;66.40
22469;DHT22;11401;50.792;4.352;2023-09-08T05:50:11;23.60;66.50
22469;DHT22;11401;50.792;4.352;2023-09-08T05:52:38;23.50;66.40
22469;DHT22;11401;50.792;4.352;2023-09-08T05:55:07;23.50;66.50
22469;DHT22;11401;50.792;4.352;2023-09-08T05:57:35;23.50;66.40
22469;DHT22;11401;50.792;4.352;2023-09-08T06:00:03;23.50;66.40
22469;DHT22;11401;50.792;4.352;2023-09-08T06:02:38;23.50;66.60
22469;DHT22;11401;50.792;4.352;2023-09-08T06:05:09;23.50;66.60
22469;DHT22;11401;50.792;4.352;2023-09-08T06:07:36;23.50;66.60
22469;DHT22;11401;50.792;4.352;2023-09-08T06:10:07;23.50;66.50
22469;DHT22;11401;50.792;4.352;2023-09-08T06:12:34;23.50;66.50
22469;DHT22;11401;50.792;4.352;2023-09-08T06:15:02;23.60;66.50
22469;DHT22;11401;50.792;4.352;2023-09-08T06:17:31;23.50;66.50
22469;DHT22;11401;50.792;4.352;2023-09-08T06:19:59;23.50;66.60
22469;DHT22;11401;50.792;4.352;2023-09-08T06:22:26;23.50;66.70
22469;DHT22;11401;50.792;4.352;2023-09-08T06:24:53;23.60;66.80
22469;DHT22;11401;50.792;4.352;2023-09-08T06:27:20;23.60;66.80
22469;DHT22;11401;50.792;4.352;2023-09-08T06:29:47;23.60;66.80
22469;DHT22;11401;50.792;4.352;2023-09-08T06:32:14;23.60;66.90
22469;DHT22;11401;50.792;4.352;2023-09-08T06:34:44;23.60;66.90
22469;DHT22;11401;50.792;4.352;2023-09-08T06:37:11;23.60;66.90
22469;DHT22;11401;50.792;4.352;2023-09-08T06:39:39;23.60;67.00
22469;DHT22;11401;50.792;4.352;2023-09-08T06:42:07;23.60;67.10
22469;DHT22;11401;50.792;4.352;2023-09-08T06:44:36;23.60;67.20
22469;DHT22;11401;50.792;4.352;2023-09-08T06:47:03;23.60;67.30
22469;DHT22;11401;50.792;4.352;2023-09-08T06:49:33;23.60;67.40
22469;DHT22;11401;50.792;4.352;2023-09-08T06:52:00;23.60;67.50
22469;DHT22;11401;50.792;4.352;2023-09-08T06:54:28;23.60;67.50
22469;DHT22;11401;50.792;4.352;2023-09-08T06:56:55;23.60;67.70
22469;DHT22;11401;50.792;4.352;2023-09-08T06:59:22;23.60;67.80
22469;DHT22;11401;50.792;4.352;2023-09-08T07:01:50;23.60;67.90
22469;DHT22;11401;50.792;4.352;2023-09-08T07:04:18;23.60;67.90
22469;DHT22;11401;50.792;4.352;2023-09-08T07:06:45;23.60;67.90
22469;DHT22;11401;50.792;4.352;2023-09-08T07:09:14;23.60;68.00
22469;DHT22;11401;50.792;4.352;2023-09-08T07:11:42;23.60;68.00
22469;DHT22;11401;50.792;4.352;2023-09-08T07:14:09;23.60;68.00
22469;DHT22;11401;50.792;4.352;2023-09-08T07:16:36;23.70;68.10
22469;DHT22;11401;50.792;4.352;2023-09-08T07:19:05;23.70;68.00
22469;DHT22;11401;50.792;4.352;2023-09-08T07:21:32;23.70;68.00
22469;DHT22;11401;50.792;4.352;2023-09-08T07:24:00;23.70;68.10
22469;DHT22;11401;50.792;4.352;2023-09-08T07:26:28;23.70;68.00
22469;DHT22;11401;50.792;4.352;2023-09-08T07:28:55;23.70;67.90
22469;DHT22;11401;50.792;4.352;2023-09-08T07:31:22;23.70;68.00
22469;DHT22;11401;50.792;4.352;2023-09-08T07:33:51;23.70;68.00
22469;DHT22;11401;50.792;4.352;2023-09-08T07:36:18;23.70;68.30
22469;DHT22;11401;50.792;4.352;2023-09-08T07:38:46;23.80;68.80
22469;DHT22;11401;50.792;4.352;2023-09-08T07:41:13;23.80;68.70
22469;DHT22;11401;50.792;4.352;2023-09-08T07:43:40;23.80;69.00
22469;DHT22;11401;50.792;4.352;2023-09-08T07:46:11;23.80;69.10
22469;DHT22;11401;50.792;4.352;2023-09-08T07:48:38;23.80;69.10
22469;DHT22;11401;50.792;4.352;2023-09-08T07:51:05;23.80;69.10
22469;DHT22;11401;50.792;4.352;2023-09-08T07:53:32;23.80;69.10
22469;DHT22;11401;50.792;4.352;2023-09-08T07:55:59;23.80;69.20
22469;DHT22;11401;50.792;4.352;2023-09-08T07:58:27;23.80;69.40
22469;DHT22;11401;50.792;4.352;2023-09-08T08:00:54;23.90;70.30
22469;DHT22;11401;50.792;4.352;2023-09-08T08:03:21;23.90;69.70
22469;DHT22;11401;50.792;4.352;2023-09-08T08:05:49;24.00;69.70
22469;DHT22;11401;50.792;4.352;2023-09-08T08:08:16;24.00;69.60
22469;DHT22;11401;50.792;4.352;2023-09-08T08:10:43;24.00;69.30
22469;DHT22;11401;50.792;4.352;2023-09-08T08:13:10;24.00;69.20
22469;DHT22;11401;50.792;4.352;2023-09-08T08:15:39;24.00;69.20
22469;DHT22;11401;50.792;4.352;2023-09-08T08:18:07;24.00;69.10
22469;DHT22;11401;50.792;4.352;2023-09-08T08:20:34;24.00;69.10
22469;DHT22;11401;50.792;4.352;2023-09-08T08:23:03;24.00;69.10
22469;DHT22;11401;50.792;4.352;2023-09-08T08:25:30;24.10;69.20
22469;DHT22;11401;50.792;4.352;2023-09-08T08:27:57;24.10;69.10
22469;DHT22;11401;50.792;4.352;2023-09-08T08:30:25;24.10;69.00
22469;DHT22;11401;50.792;4.352;2023-09-08T08:32:52;24.10;68.90
22469;DHT22;11401;50.792;4.352;2023-09-08T08:35:20;24.10;68.90
22469;DHT22;11401;50.792;4.352;2023-09-08T08:37:47;24.10;69.00
22469;DHT22;11401;50.792;4.352;2023-09-08T08:40:14;24.10;69.10
22469;DHT22;11401;50.792;4.352;2023-09-08T08:42:42;24.10;69.10
22469;DHT22;11401;50.792;4.352;2023-09-08T08:45:10;24.20;69.20
22469;DHT22;11401;50.792;4.352;2023-09-08T08:47:39;24.20;69.30
22469;DHT22;11401;50.792;4.352;2023-09-08T08:50:08;24.20;69.30
22469;DHT22;11401;50.792;4.352;2023-09-08T08:52:38;24.20;69.50
22469;DHT22;11401;50.792;4.352;2023-09-08T08:55:06;24.30;69.60
22469;DHT22;11401;50.792;4.352;2023-09-08T08:57:36;24.20;69.50
22469;DHT22;11401;50.792;4.352;2023-09-08T09:00:08;24.30;69.50
22469;DHT22;11401;50.792;4.352;2023-09-08T09:02:39;24.30;69.50
22469;DHT22;11401;50.792;4.352;2023-09-08T09:05:13;24.30;69.60
22469;DHT22;11401;50.792;4.352;2023-09-08T09:07:44;24.30;69.60
22469;DHT22;11401;50.792;4.352;2023-09-08T09:10:11;24.30;69.70
22469;DHT22;11401;50.792;4.352;2023-09-08T09:12:38;24.30;69.70
22469;DHT22;11401;50.792;4.352;2023-09-08T09:15:06;24.30;69.70
22469;DHT22;11401;50.792;4.352;2023-09-08T09:17:35;24.30;69.80
22469;DHT22;11401;50.792;4.352;2023-09-08T09:20:17;24.40;69.80
22469;DHT22;11401;50.792;4.352;2023-09-08T09:22:45;24.40;69.70
22469;DHT22;11401;50.792;4.352;2023-09-08T09:25:22;24.40;69.80
22469;DHT22;11401;50.792;4.352;2023-09-08T09:27:52;24.40;69.80
22469;DHT22;11401;50.792;4.352;2023-09-08T09:30:21;24.40;70.00
22469;DHT22;11401;50.792;4.352;2023-09-08T09:32:59;24.40;70.00
22469;DHT22;11401;50.792;4.352;2023-09-08T09:36:03;24.40;69.90
22469;DHT22;11401;50.792;4.352;2023-09-08T09:38:30;24.50;69.70
22469;DHT22;11401;50.792;4.352;2023-09-08T09:40:57;24.40;69.80
22469;DHT22;11401;50.792;4.352;2023-09-08T09:43:27;24.40;69.70
22469;DHT22;11401;50.792;4.352;2023-09-08T09:45:54;24.50;70.00
22469;DHT22;11401;50.792;4.352;2023-09-08T09:48:23;24.40;70.00
22469;DHT22;11401;50.792;4.352;2023-09-08T09:50:50;24.50;70.10
22469;DHT22;11401;50.792;4.352;2023-09-08T09:53:18;24.50;70.10
22469;DHT22;11401;50.792;4.352;2023-09-08T09:55:46;24.60;70.30
22469;DHT22;11401;50.792;4.352;2023-09-08T09:58:13;24.60;70.40
22469;DHT22;11401;50.792;4.352;2023-09-08T10:00:41;24.60;70.60
22469;DHT22;11401;50.792;4.352;2023-09-08T10:03:13;24.60;70.80
22469;DHT22;11401;50.792;4.352;2023-09-08T10:05:41;24.60;70.80
22469;DHT22;11401;50.792;4.352;2023-09-08T10:08:08;24.60;70.60
22469;DHT22;11401;50.792;4.352;2023-09-08T10:10:35;24.60;70.60
22469;DHT22;11401;50.792;4.352;2023-09-08T10:13:06;24.70;70.60
22469;DHT22;11401;50.792;4.352;2023-09-08T10:15:34;24.70;70.50
22469;DHT22;11401;50.792;4.352;2023-09-08T10:18:04;24.70;70.60
22469;DHT22;11401;50.792;4.352;2023-09-08T10:20:33;24.70;71.30
22469;DHT22;11401;50.792;4.352;2023-09-08T10:23:10;24.70;70.80
22469;DHT22;11401;50.792;4.352;2023-09-08T10:25:45;24.80;70.90
22469;DHT22;11401;50.792;4.352;2023-09-08T10:28:24;24.80;70.80
22469;DHT22;11401;50.792;4.352;2023-09-08T10:30:51;24.80;70.70
22469;DHT22;11401;50.792;4.352;2023-09-08T10:33:20;24.90;70.80
22469;DHT22;11401;50.792;4.352;2023-09-08T10:35:47;24.80;71.00
22469;DHT22;11401;50.792;4.352;2023-09-08T10:38:26;24.90;70.80
22469;DHT22;11401;50.792;4.352;2023-09-08T10:41:25;24.90;70.40
22469;DHT22;11401;50.792;4.352;2023-09-08T10:43:43;24.90;70.70
22469;DHT22;11401;50.792;4.352;2023-09-08T10:46:11;24.90;71.20
22469;DHT22;11401;50.792;4.352;2023-09-08T10:48:53;24.90;71.30
22469;DHT22;11401;50.792;4.352;2023-09-08T10:51:22;25.00;70.70
22469;DHT22;11401;50.792;4.352;2023-09-08T10:53:51;25.00;70.40
22469;DHT22;11401;50.792;4.352;2023-09-08T10:56:18;25.00;70.30
22469;DHT22;11401;50.792;4.352;2023-09-08T10:58:52;25.00;70.20
22469;DHT22;11401;50.792;4.352;2023-09-08T11:01:20;25.00;70.20
22469;DHT22;11401;50.792;4.352;2023-09-08T11:03:57;25.00;69.70
22469;DHT22;11401;50.792;4.352;2023-09-08T11:06:27;25.00;69.30
22469;DHT22;11401;50.792;4.352;2023-09-08T11:09:06;25.00;68.90
22469;DHT22;11401;50.792;4.352;2023-09-08T11:11:36;25.10;68.90
22469;DHT22;11401;50.792;4.352;2023-09-08T11:14:04;25.00;69.00
22469;DHT22;11401;50.792;4.352;2023-09-08T11:16:31;25.10;69.40
22469;DHT22;11401;50.792;4.352;2023-09-08T11:19:00;25.10;69.40
22469;DHT22;11401;50.792;4.352;2023-09-08T11:21:31;25.10;69.10
22469;DHT22;11401;50.792;4.352;2023-09-08T11:24:02;25.10;69.20
22469;DHT22;11401;50.792;4.352;2023-09-08T11:26:34;25.10;69.90
22469;DHT22;11401;50.792;4.352;2023-09-08T11:29:01;25.10;69.00
22469;DHT22;11401;50.792;4.352;2023-09-08T11:31:29;25.20;68.70
22469;DHT22;11401;50.792;4.352;2023-09-08T11:33:57;25.10;68.30
22469;DHT22;11401;50.792;4.352;2023-09-08T11:36:26;25.20;68.20
22469;DHT22;11401;50.792;4.352;2023-09-08T11:38:55;25.20;68.00
22469;DHT22;11401;50.792;4.352;2023-09-08T11:41:22;25.20;68.20
22469;DHT22;11401;50.792;4.352;2023-09-08T11:43:50;25.20;68.30
22469;DHT22;11401;50.792;4.352;2023-09-08T11:46:18;25.20;68.10
22469;DHT22;11401;50.792;4.352;2023-09-08T11:48:46;25.20;67.70
22469;DHT22;11401;50.792;4.352;2023-09-08T11:51:13;25.30;67.90
22469;DHT22;11401;50.792;4.352;2023-09-08T11:53:41;25.20;67.90
22469;DHT22;11401;50.792;4.352;2023-09-08T11:56:09;25.30;68.20
22469;DHT22;11401;50.792;4.352;2023-09-08T11:58:37;25.20;68.10
22469;DHT22;11401;50.792;4.352;2023-09-08T12:01:05;25.30;67.70
22469;DHT22;11401;50.792;4.352;2023-09-08T12:03:32;25.30;67.30
22469;DHT22;11401;50.792;4.352;2023-09-08T12:06:00;25.30;67.20
22469;DHT22;11401;50.792;4.352;2023-09-08T12:08:29;25.30;66.70
22469;DHT22;11401;50.792;4.352;2023-09-08T12:10:57;25.30;66.50
22469;DHT22;11401;50.792;4.352;2023-09-08T12:13:24;25.30;66.50
22469;DHT22;11401;50.792;4.352;2023-09-08T12:15:51;25.30;66.60
22469;DHT22;11401;50.792;4.352;2023-09-08T12:18:18;25.30;66.60
22469;DHT22;11401;50.792;4.352;2023-09-08T12:20:46;25.40;67.00
22469;DHT22;11401;50.792;4.352;2023-09-08T12:23:20;25.40;67.30
22469;DHT22;11401;50.792;4.352;2023-09-08T12:25:49;25.40;67.20
22469;DHT22;11401;50.792;4.352;2023-09-08T12:28:19;25.40;67.00
22469;DHT22;11401;50.792;4.352;2023-09-08T12:30:48;25.40;67.00
22469;DHT22;11401;50.792;4.352;2023-09-08T12:33:16;25.40;67.40
22469;DHT22;11401;50.792;4.352;2023-09-08T12:35:47;25.40;67.60
22469;DHT22;11401;50.792;4.352;2023-09-08T12:38:19;25.40;67.50
22469;DHT22;11401;50.792;4.352;2023-09-08T12:40:46;25.40;67.30
22469;DHT22;11401;50.792;4.352;2023-09-08T12:43:13;25.40;67.20
22469;DHT22;11401;50.792;4.352;2023-09-08T12:45:55;25.40;67.10
22469;DHT22;11401;50.792;4.352;2023-09-08T12:48:23;25.40;66.90
22469;DHT22;11401;50.792;4.352;2023-09-08T12:50:50;25.40;66.80
22469;DHT22;11401;50.792;4.352;2023-09-08T12:53:18;25.40;66.90
22469;DHT22;11401;50.792;4.352;2023-09-08T12:55:46;25.50;66.90
22469;DHT22;11401;50.792;4.352;2023-09-08T12:58:14;25.50;66.90
22469;DHT22;11401;50.792;4.352;2023-09-08T13:00:41;25.40;66.80
22469;DHT22;11401;50.792;4.352;2023-09-08T13:03:08;25.40;67.60
22469;DHT22;11401;50.792;4.352;2023-09-08T13:05:35;25.40;66.90
22469;DHT22;11401;50.792;4.352;2023-09-08T13:08:05;25.40;66.90
22469;DHT22;11401;50.792;4.352;2023-09-08T13:10:32;25.40;67.00
22469;DHT22;11401;50.792;4.352;2023-09-08T13:13:00;25.40;67.10
22469;DHT22;11401;50.792;4.352;2023-09-08T13:15:27;25.40;67.20
22469;DHT22;11401;50.792;4.352;2023-09-08T13:17:55;25.30;67.10
22469;DHT22;11401;50.792;4.352;2023-09-08T13:20:22;25.40;67.20
22469;DHT22;11401;50.792;4.352;2023-09-08T13:22:49;25.40;67.20
22469;DHT22;11401;50.792;4.352;2023-09-08T13:25:16;25.40;67.30
22469;DHT22;11401;50.792;4.352;2023-09-08T13:27:43;25.30;67.30
22469;DHT22;11401;50.792;4.352;2023-09-08T13:30:12;25.30;67.30
22469;DHT22;11401;50.792;4.352;2023-09-08T13:32:40;25.30;67.20
22469;DHT22;11401;50.792;4.352;2023-09-08T13:35:07;25.30;67.20
22469;DHT22;11401;50.792;4.352;2023-09-08T13:37:34;25.30;67.20
22469;DHT22;11401;50.792;4.352;2023-09-08T13:40:02;25.30;67.30
22469;DHT22;11401;50.792;4.352;2023-09-08T13:42:31;25.30;67.30
22469;DHT22;11401;50.792;4.352;2023-09-08T13:44:58;25.30;67.30
22469;DHT22;11401;50.792;4.352;2023-09-08T13:47:26;25.30;68.10
22469;DHT22;11401;50.792;4.352;2023-09-08T13:49:54;25.30;67.50
22469;DHT22;11401;50.792;4.352;2023-09-08T13:52:24;25.40;67.50
22469;DHT22;11401;50.792;4.352;2023-09-08T13:54:56;25.40;67.60
22469;DHT22;11401;50.792;4.352;2023-09-08T13:57:26;25.40;68.00
22469;DHT22;11401;50.792;4.352;2023-09-08T13:59:55;25.40;68.50
22469;DHT22;11401;50.792;4.352;2023-09-08T14:02:23;25.40;68.30
22469;DHT22;11401;50.792;4.352;2023-09-08T14:04:53;25.50;68.30
22469;DHT22;11401;50.792;4.352;2023-09-08T14:07:26;25.40;68.40
22469;DHT22;11401;50.792;4.352;2023-09-08T14:10:03;25.40;68.40
22469;DHT22;11401;50.792;4.352;2023-09-08T14:12:37;25.40;68.30
22469;DHT22;11401;50.792;4.352;2023-09-08T14:15:04;25.50;68.20
22469;DHT22;11401;50.792;4.352;2023-09-08T14:17:31;25.50;68.20
22469;DHT22;11401;50.792;4.352;2023-09-08T14:19:58;25.60;68.20
22469;DHT22;11401;50.792;4.352;2023-09-08T14:22:26;25.60;68.10
22469;DHT22;11401;50.792;4.352;2023-09-08T14:24:53;25.60;68.10
22469;DHT22;11401;50.792;4.352;2023-09-08T14:27:20;25.60;68.00
22469;DHT22;11401;50.792;4.352;2023-09-08T14:29:47;25.70;67.90
22469;DHT22;11401;50.792;4.352;2023-09-08T14:32:14;25.70;67.90
22469;DHT22;11401;50.792;4.352;2023-09-08T14:34:41;25.70;68.00
22469;DHT22;11401;50.792;4.352;2023-09-08T14:37:08;25.70;68.00
22469;DHT22;11401;50.792;4.352;2023-09-08T14:39:37;25.60;68.00
22469;DHT22;11401;50.792;4.352;2023-09-08T14:42:05;25.70;68.20
22469;DHT22;11401;50.792;4.352;2023-09-08T14:44:33;25.70;68.30
22469;DHT22;11401;50.792;4.352;2023-09-08T14:47:00;25.70;68.40
22469;DHT22;11401;50.792;4.352;2023-09-08T14:49:27;25.60;68.50
22469;DHT22;11401;50.792;4.352;2023-09-08T14:51:54;25.70;68.70
22469;DHT22;11401;50.792;4.352;2023-09-08T14:54:21;25.70;68.80
22469;DHT22;11401;50.792;4.352;2023-09-08T14:56:48;25.70;69.00
22469;DHT22;11401;50.792;4.352;2023-09-08T14:59:15;25.70;69.10
22469;DHT22;11401;50.792;4.352;2023-09-08T15:01:42;25.70;69.10
22469;DHT22;11401;50.792;4.352;2023-09-08T15:04:12;25.70;69.10
22469;DHT22;11401;50.792;4.352;2023-09-08T15:06:39;25.70;69.10
22469;DHT22;11401;50.792;4.352;2023-09-08T15:09:06;25.70;69.10
22469;DHT22;11401;50.792;4.352;2023-09-08T15:11:33;25.70;69.00
22469;DHT22;11401;50.792;4.352;2023-09-08T15:14:00;25.70;68.90
22469;DHT22;11401;50.792;4.352;2023-09-08T15:16:27;25.70;69.00
22469;DHT22;11401;50.792;4.352;2023-09-08T15:18:54;25.70;69.00
22469;DHT22;11401;50.792;4.352;2023-09-08T15:21:24;25.70;68.90
22469;DHT22;11401;50.792;4.352;2023-09-08T15:23:52;25.80;69.00
22469;DHT22;11401;50.792;4.352;2023-09-08T15:26:20;25.80;69.00
22469;DHT22;11401;50.792;4.352;2023-09-08T15:28:47;25.80;69.10
22469;DHT22;11401;50.792;4.352;2023-09-08T15:31:17;25.80;69.20
22469;DHT22;11401;50.792;4.352;2023-09-08T15:33:44;25.80;69.10
22469;DHT22;11401;50.792;4.352;2023-09-08T15:36:12;25.80;69.10
22469;DHT22;11401;50.792;4.352;2023-09-08T15:38:40;25.80;69.00
22469;DHT22;11401;50.792;4.352;2023-09-08T15:43:39;25.80;68.90